createdAt,value
2018-01-22T00:00:08.256Z,0.50
2018-01-22T00:01:08.239Z,0.60
2018-01-22T00:02:08.233Z,0.50
2018-01-22T00:03:08.211Z,0.40
2018-01-22T00:04:08.197Z,0.40
2018-01-22T00:05:08.181Z,0.50
2018-01-22T00:06:08.166Z,0.40
2018-01-22T00:07:08.150Z,0.50
2018-01-22T00:08:08.136Z,0.50
2018-01-22T00:09:08.122Z,1.10
2018-01-22T00:10:08.106Z,0.50
2018-01-22T00:11:08.093Z,0.40
2018-01-22T00:12:08.077Z,0.90
2018-01-22T00:13:08.062Z,0.30
2018-01-22T00:14:08.047Z,0.60
2018-01-22T00:15:08.032Z,0.90
2018-01-22T00:16:08.017Z,1.30
2018-01-22T00:17:08.001Z,0.20
2018-01-22T00:18:07.987Z,0.30
2018-01-22T00:19:07.971Z,0.40
2018-01-22T00:20:07.958Z,0.40
2018-01-22T00:21:07.949Z,0.40
2018-01-22T00:22:07.927Z,0.20
2018-01-22T00:23:07.912Z,0.20
2018-01-22T00:24:07.896Z,0.10
2018-01-22T00:25:07.882Z,0.10
2018-01-22T00:26:07.867Z,0.30
2018-01-22T00:27:07.853Z,0.30
2018-01-22T00:28:07.837Z,0.30
2018-01-22T00:29:07.823Z,0.20
2018-01-22T00:30:07.809Z,0.40
2018-01-22T00:31:07.793Z,0.20
2018-01-22T00:32:07.781Z,0.10
2018-01-22T00:33:07.765Z,0.10
2018-01-22T00:34:07.749Z,0.00
2018-01-22T00:35:07.736Z,0.10
2018-01-22T00:36:07.722Z,0.00
2018-01-22T00:37:07.705Z,0.30
2018-01-22T00:38:07.692Z,0.20
2018-01-22T00:39:07.716Z,0.40
2018-01-22T00:40:07.662Z,0.00
2018-01-22T00:41:07.647Z,0.10
2018-01-22T00:42:07.632Z,0.20
2018-01-22T00:43:07.618Z,0.00
2018-01-22T00:44:07.603Z,0.10
2018-01-22T00:45:07.588Z,0.00
2018-01-22T00:46:07.573Z,0.00
2018-01-22T00:47:07.561Z,0.00
2018-01-22T00:48:07.545Z,0.10
2018-01-22T00:49:07.530Z,0.20
2018-01-22T00:50:07.515Z,0.30
2018-01-22T00:51:07.501Z,0.20
2018-01-22T00:52:07.486Z,0.50
2018-01-22T00:53:07.472Z,0.20
2018-01-22T00:54:07.458Z,0.20
2018-01-22T00:55:07.446Z,0.00
2018-01-22T00:56:07.430Z,0.20
2018-01-22T00:57:07.413Z,0.00
2018-01-22T00:58:07.400Z,0.20
2018-01-22T00:59:07.385Z,0.20
2018-01-22T01:00:07.371Z,0.10
2018-01-22T01:01:07.356Z,0.00
2018-01-22T01:02:07.342Z,0.30
2018-01-22T01:03:07.328Z,0.00
2018-01-22T01:04:07.313Z,0.00
2018-01-22T01:05:07.299Z,0.10
2018-01-22T01:06:07.285Z,0.00
2018-01-22T01:07:07.272Z,0.00
2018-01-22T01:08:07.258Z,0.10
2018-01-22T01:09:07.243Z,0.20
2018-01-22T01:10:07.229Z,0.30
2018-01-22T01:11:07.216Z,0.00
2018-01-22T01:12:07.202Z,0.00
2018-01-22T01:13:07.188Z,0.50
2018-01-22T01:14:07.173Z,0.10
2018-01-22T01:15:07.160Z,0.20
2018-01-22T01:16:07.147Z,0.10
2018-01-22T01:17:07.131Z,0.10
2018-01-22T01:18:07.121Z,0.30
2018-01-22T01:19:07.104Z,0.00
2018-01-22T01:20:07.091Z,0.10
2018-01-22T01:21:07.078Z,0.20
2018-01-22T01:22:07.064Z,0.10
2018-01-22T01:23:07.050Z,0.20
2018-01-22T01:24:07.038Z,0.00
2018-01-22T01:25:07.025Z,0.10
2018-01-22T01:26:07.010Z,0.00
2018-01-22T01:27:06.995Z,0.10
2018-01-22T01:28:06.983Z,0.10
2018-01-22T01:29:06.968Z,0.20
2018-01-22T01:30:06.954Z,0.10
2018-01-22T01:31:06.944Z,0.30
2018-01-22T01:32:06.929Z,0.20
2018-01-22T01:33:06.915Z,0.50
2018-01-22T01:34:06.902Z,0.10
2018-01-22T01:35:06.888Z,0.10
2018-01-22T01:36:06.880Z,0.10
2018-01-22T01:37:06.869Z,0.20
2018-01-22T01:38:06.847Z,0.20
2018-01-22T01:39:06.835Z,0.20
2018-01-22T01:40:06.820Z,0.00
2018-01-22T01:41:06.807Z,0.30
2018-01-22T01:42:06.793Z,0.20
2018-01-22T01:43:06.781Z,0.20
2018-01-22T01:44:06.767Z,0.30
2018-01-22T01:45:06.754Z,0.50
2018-01-22T01:46:06.739Z,0.20
2018-01-22T01:47:06.727Z,0.40
2018-01-22T01:48:06.714Z,0.00
2018-01-22T01:49:06.700Z,0.10
2018-01-22T01:50:06.685Z,0.10
2018-01-22T01:51:06.672Z,0.10
2018-01-22T01:52:06.658Z,0.10
2018-01-22T01:53:06.644Z,0.50
2018-01-22T01:54:06.632Z,0.20
2018-01-22T01:55:06.618Z,0.20
2018-01-22T01:56:06.605Z,0.40
2018-01-22T01:57:06.589Z,0.00
2018-01-22T01:58:06.577Z,0.30
2018-01-22T01:59:06.563Z,0.00
2018-01-22T02:00:06.550Z,0.10
2018-01-22T02:01:06.536Z,0.10
2018-01-22T02:02:06.523Z,0.20
2018-01-22T02:03:06.509Z,0.10
2018-01-22T02:04:06.496Z,0.30
2018-01-22T02:05:06.481Z,0.20
2018-01-22T02:06:06.467Z,0.00
2018-01-22T02:07:06.454Z,0.10
2018-01-22T02:08:06.444Z,0.10
2018-01-22T02:09:06.427Z,0.10
2018-01-22T02:10:06.414Z,0.80
2018-01-22T02:11:06.399Z,0.60
2018-01-22T02:12:06.386Z,0.30
2018-01-22T02:13:06.371Z,0.10
2018-01-22T02:14:06.358Z,0.10
2018-01-22T02:15:06.344Z,0.40
2018-01-22T02:16:06.331Z,0.10
2018-01-22T02:17:06.317Z,0.20
2018-01-22T02:18:06.304Z,0.20
2018-01-22T02:19:06.291Z,0.60
2018-01-22T02:20:06.280Z,0.40
2018-01-22T02:21:06.265Z,0.20
2018-01-22T02:22:06.250Z,0.10
2018-01-22T02:23:06.236Z,0.10
2018-01-22T02:24:06.222Z,0.50
2018-01-22T02:25:06.208Z,0.10
2018-01-22T02:26:06.195Z,0.10
2018-01-22T02:27:06.190Z,0.40
2018-01-22T02:28:06.166Z,0.20
2018-01-22T02:29:06.152Z,0.00
2018-01-22T02:30:06.139Z,0.10
2018-01-22T02:31:06.124Z,0.00
2018-01-22T02:32:06.113Z,0.00
2018-01-22T02:33:06.097Z,0.00
2018-01-22T02:34:06.084Z,0.10
2018-01-22T02:35:06.071Z,0.00
2018-01-22T02:36:06.056Z,0.00
2018-01-22T02:37:06.042Z,0.10
2018-01-22T02:38:06.028Z,0.00
2018-01-22T02:39:06.015Z,0.10
2018-01-22T02:40:06.002Z,0.00
2018-01-22T02:41:05.987Z,0.00
2018-01-22T02:42:05.973Z,0.20
2018-01-22T02:43:05.961Z,0.40
2018-01-22T02:44:05.946Z,0.00
2018-01-22T02:45:05.931Z,0.20
2018-01-22T02:46:05.918Z,0.10
2018-01-22T02:47:05.910Z,0.10
2018-01-22T02:49:05.876Z,0.10
2018-01-22T02:50:05.863Z,0.10
2018-01-22T02:51:05.854Z,0.00
2018-01-22T02:52:05.838Z,0.20
2018-01-22T02:53:05.821Z,0.10
2018-01-22T02:54:05.809Z,0.20
2018-01-22T02:55:05.795Z,0.00
2018-01-22T02:56:05.787Z,0.10
2018-01-22T02:57:05.766Z,0.10
2018-01-22T02:58:05.754Z,0.20
2018-01-22T02:59:05.740Z,0.30
2018-01-22T03:00:05.727Z,0.20
2018-01-22T03:01:05.713Z,0.20
2018-01-22T03:02:05.697Z,0.00
2018-01-22T03:03:05.687Z,0.10
2018-01-22T03:04:05.671Z,0.20
2018-01-22T03:05:05.655Z,0.00
2018-01-22T03:06:05.641Z,0.70
2018-01-22T03:07:05.629Z,0.10
2018-01-22T03:08:05.614Z,0.20
2018-01-22T03:09:05.603Z,0.00
2018-01-22T03:10:05.589Z,0.20
2018-01-22T03:11:05.574Z,0.00
2018-01-22T03:12:05.560Z,0.20
2018-01-22T03:13:05.545Z,0.00
2018-01-22T03:14:05.534Z,0.10
2018-01-22T03:15:05.519Z,0.00
2018-01-22T03:16:05.513Z,0.10
2018-01-22T03:17:05.492Z,0.10
2018-01-22T03:18:05.478Z,0.30
2018-01-22T03:19:05.465Z,0.10
2018-01-22T03:20:05.455Z,0.10
2018-01-22T03:21:05.437Z,0.10
2018-01-22T03:22:05.426Z,0.20
2018-01-22T03:23:05.411Z,0.20
2018-01-22T03:24:05.397Z,0.10
2018-01-22T03:25:05.382Z,0.10
2018-01-22T03:26:05.370Z,0.10
2018-01-22T03:27:05.356Z,0.10
2018-01-22T03:28:05.343Z,0.20
2018-01-22T03:29:05.329Z,0.10
2018-01-22T03:30:05.316Z,0.20
2018-01-22T03:31:05.306Z,0.40
2018-01-22T03:32:05.291Z,0.10
2018-01-22T03:33:05.305Z,0.20
2018-01-22T03:34:05.262Z,0.10
2018-01-22T03:35:05.248Z,0.50
2018-01-22T03:36:05.234Z,0.10
2018-01-22T03:37:05.219Z,0.20
2018-01-22T03:38:05.207Z,0.10
2018-01-22T03:39:05.194Z,0.10
2018-01-22T03:40:05.180Z,0.00
2018-01-22T03:41:05.165Z,0.10
2018-01-22T03:42:05.152Z,0.10
2018-01-22T03:43:05.138Z,0.10
2018-01-22T03:44:05.125Z,0.10
2018-01-22T03:45:05.111Z,0.10
2018-01-22T03:46:05.103Z,0.10
2018-01-22T03:47:05.097Z,0.30
2018-01-22T03:48:05.071Z,0.10
2018-01-22T03:49:05.060Z,0.20
2018-01-22T03:50:05.042Z,0.00
2018-01-22T03:51:05.029Z,0.00
2018-01-22T03:52:05.024Z,0.10
2018-01-22T03:53:05.002Z,0.10
2018-01-22T03:54:04.989Z,0.30
2018-01-22T03:55:04.976Z,0.30
2018-01-22T03:56:04.962Z,0.00
2018-01-22T03:57:04.950Z,0.20
2018-01-22T03:58:04.934Z,0.10
2018-01-22T03:59:04.922Z,0.10
2018-01-22T04:00:04.908Z,0.10
2018-01-22T04:01:04.894Z,0.10
2018-01-22T04:02:04.883Z,0.10
2018-01-22T04:03:04.868Z,0.10
2018-01-22T04:04:04.856Z,0.10
2018-01-22T04:05:04.842Z,0.10
2018-01-22T04:06:04.829Z,0.10
2018-01-22T04:07:04.830Z,0.00
2018-01-22T04:08:04.803Z,0.50
2018-01-22T04:09:04.788Z,0.30
2018-01-22T04:10:04.776Z,0.10
2018-01-22T04:11:04.762Z,0.10
2018-01-22T04:12:04.750Z,0.10
2018-01-22T04:13:04.735Z,0.10
2018-01-22T04:14:04.723Z,0.10
2018-01-22T04:15:04.710Z,0.10
2018-01-22T04:16:04.700Z,0.10
2018-01-22T04:17:04.683Z,0.20
2018-01-22T04:18:04.671Z,0.10
2018-01-22T04:19:04.658Z,0.30
2018-01-22T04:20:04.646Z,0.10
2018-01-22T04:21:04.631Z,0.30
2018-01-22T04:22:04.618Z,0.20
2018-01-22T04:23:04.607Z,0.20
2018-01-22T04:24:04.593Z,0.10
2018-01-22T04:25:04.581Z,0.20
2018-01-22T04:26:04.567Z,0.30
2018-01-22T04:27:04.554Z,0.10
2018-01-22T04:28:04.543Z,0.10
2018-01-22T04:29:04.528Z,0.30
2018-01-22T04:30:04.515Z,0.30
2018-01-22T04:31:04.503Z,0.10
2018-01-22T04:32:04.490Z,0.30
2018-01-22T04:33:04.477Z,0.10
2018-01-22T04:34:04.464Z,0.20
2018-01-22T04:35:04.451Z,0.10
2018-01-22T04:36:04.439Z,0.10
2018-01-22T04:37:04.425Z,0.10
2018-01-22T04:38:04.413Z,0.00
2018-01-22T04:39:04.400Z,0.10
2018-01-22T04:40:04.387Z,0.20
2018-01-22T04:41:04.375Z,0.20
2018-01-22T04:42:04.361Z,0.00
2018-01-22T04:43:04.356Z,0.10
2018-01-22T04:44:04.337Z,0.00
2018-01-22T04:45:04.323Z,0.10
2018-01-22T04:46:04.312Z,0.10
2018-01-22T04:47:04.299Z,0.30
2018-01-22T04:48:04.286Z,0.20
2018-01-22T04:49:04.272Z,0.20
2018-01-22T04:50:04.260Z,0.10
2018-01-22T04:51:04.247Z,0.10
2018-01-22T04:52:04.234Z,0.20
2018-01-22T04:53:04.221Z,0.40
2018-01-22T04:54:04.208Z,0.10
2018-01-22T04:55:04.197Z,0.20
2018-01-22T04:56:04.187Z,0.30
2018-01-22T04:57:04.171Z,0.20
2018-01-22T04:58:04.158Z,0.30
2018-01-22T04:59:04.146Z,0.30
2018-01-22T05:00:04.134Z,0.50
2018-01-22T05:01:04.121Z,0.20
2018-01-22T05:02:04.108Z,0.20
2018-01-22T05:03:04.096Z,0.40
2018-01-22T05:04:04.083Z,0.30
2018-01-22T05:05:04.070Z,0.20
2018-01-22T05:06:04.058Z,0.40
2018-01-22T05:07:04.046Z,0.50
2018-01-22T05:08:04.033Z,0.20
2018-01-22T05:09:04.020Z,0.40
2018-01-22T05:10:04.008Z,0.20
2018-01-22T05:11:03.997Z,0.20
2018-01-22T05:12:03.983Z,0.50
2018-01-22T05:13:03.969Z,0.40
2018-01-22T05:14:03.957Z,0.40
2018-01-22T05:15:03.944Z,0.30
2018-01-22T05:16:03.933Z,0.50
2018-01-22T05:17:03.919Z,0.30
2018-01-22T05:18:03.907Z,0.40
2018-01-22T05:19:03.895Z,0.40
2018-01-22T05:20:03.882Z,0.50
2018-01-22T05:21:03.869Z,0.60
2018-01-22T05:22:03.857Z,0.40
2018-01-22T05:23:03.845Z,0.60
2018-01-22T05:24:03.834Z,0.60
2018-01-22T05:25:03.820Z,0.70
2018-01-22T05:26:03.807Z,0.50
2018-01-22T05:27:03.803Z,0.70
2018-01-22T05:28:03.783Z,0.70
2018-01-22T05:29:03.769Z,0.70
2018-01-22T05:30:03.758Z,0.60
2018-01-22T05:31:03.746Z,0.80
2018-01-22T05:32:03.733Z,0.50
2018-01-22T05:33:03.721Z,1.10
2018-01-22T05:34:03.707Z,0.80
2018-01-22T05:35:03.699Z,0.70
2018-01-22T05:36:03.685Z,1.50
2018-01-22T05:37:03.671Z,0.70
2018-01-22T05:38:03.659Z,1.00
2018-01-22T05:39:03.649Z,1.10
2018-01-22T05:40:03.635Z,0.80
2018-01-22T05:41:03.621Z,0.50
2018-01-22T05:42:03.609Z,0.80
2018-01-22T05:43:03.598Z,1.00
2018-01-22T05:44:03.586Z,0.70
2018-01-22T05:45:03.573Z,1.30
2018-01-22T05:46:03.560Z,1.20
2018-01-22T05:47:03.548Z,1.00
2018-01-22T05:48:03.538Z,0.80
2018-01-22T05:49:03.536Z,1.10
2018-01-22T05:50:03.516Z,0.60
2018-01-22T05:51:03.500Z,1.10
2018-01-22T05:52:03.488Z,0.70
2018-01-22T05:53:03.475Z,1.20
2018-01-22T05:54:03.464Z,0.80
2018-01-22T05:55:03.453Z,1.20
2018-01-22T05:56:03.439Z,1.20
2018-01-22T05:57:03.426Z,1.20
2018-01-22T05:58:03.415Z,1.00
2018-01-22T05:59:03.402Z,0.90
2018-01-22T06:00:03.391Z,1.50
2018-01-22T06:01:03.377Z,1.60
2018-01-22T06:02:03.366Z,1.40
2018-01-22T06:03:03.354Z,2.00
2018-01-22T06:04:03.341Z,1.50
2018-01-22T06:05:03.329Z,1.10
2018-01-22T06:06:03.316Z,1.80
2018-01-22T06:07:03.304Z,1.70
2018-01-22T06:08:03.292Z,1.40
2018-01-22T06:09:03.279Z,2.30
2018-01-22T06:10:03.268Z,1.70
2018-01-22T06:11:03.256Z,2.50
2018-01-22T06:12:03.249Z,2.20
2018-01-22T06:13:03.232Z,2.30
2018-01-22T06:14:03.220Z,1.90
2018-01-22T06:15:03.208Z,2.60
2018-01-22T06:16:03.196Z,1.60
2018-01-22T06:17:03.191Z,2.20
2018-01-22T06:18:03.172Z,1.90
2018-01-22T06:19:03.160Z,2.40
2018-01-22T06:20:03.148Z,2.10
2018-01-22T06:21:03.134Z,2.40
2018-01-22T06:22:03.124Z,2.00
2018-01-22T06:23:03.111Z,2.10
2018-01-22T06:24:03.100Z,1.90
2018-01-22T06:25:03.090Z,2.20
2018-01-22T06:26:03.076Z,2.90
2018-01-22T06:27:03.063Z,2.10
2018-01-22T06:28:03.052Z,2.20
2018-01-22T06:29:03.040Z,2.30
2018-01-22T06:30:03.029Z,2.70
2018-01-22T06:31:03.016Z,2.20
2018-01-22T06:32:03.007Z,2.10
2018-01-22T06:33:02.993Z,2.70
2018-01-22T06:34:02.979Z,1.30
2018-01-22T06:35:02.968Z,1.90
2018-01-22T06:36:02.957Z,2.20
2018-01-22T06:37:02.947Z,2.10
2018-01-22T06:38:02.932Z,2.50
2018-01-22T06:39:02.920Z,2.40
2018-01-22T06:40:02.908Z,1.80
2018-01-22T06:41:02.897Z,1.80
2018-01-22T06:42:02.887Z,1.80
2018-01-22T06:43:02.873Z,2.00
2018-01-22T06:44:02.873Z,1.80
2018-01-22T06:45:02.850Z,3.30
2018-01-22T06:46:02.838Z,2.10
2018-01-22T06:47:02.825Z,1.90
2018-01-22T06:48:02.814Z,2.40
2018-01-22T06:49:02.801Z,3.10
2018-01-22T06:50:02.789Z,1.60
2018-01-22T06:51:02.779Z,2.40
2018-01-22T06:52:02.770Z,1.90
2018-01-22T06:53:02.755Z,3.20
2018-01-22T06:54:02.744Z,2.50
2018-01-22T06:55:02.731Z,2.10
2018-01-22T06:56:02.721Z,2.10
2018-01-22T06:57:02.708Z,2.90
2018-01-22T06:58:02.697Z,3.00
2018-01-22T06:59:02.684Z,3.10
2018-01-22T07:00:02.674Z,2.30
2018-01-22T07:01:02.661Z,2.80
2018-01-22T07:02:02.649Z,3.20
2018-01-22T07:03:02.638Z,3.20
2018-01-22T07:04:02.628Z,3.00
2018-01-22T07:05:02.615Z,3.50
2018-01-22T07:06:02.606Z,3.60
2018-01-22T07:07:02.595Z,2.90
2018-01-22T07:08:02.581Z,2.70
2018-01-22T07:09:02.569Z,2.80
2018-01-22T07:10:02.557Z,2.40
2018-01-22T07:11:02.546Z,2.00
2018-01-22T07:12:02.534Z,2.70
2018-01-22T07:13:02.522Z,2.90
2018-01-22T07:14:02.511Z,2.30
2018-01-22T07:15:02.499Z,3.60
2018-01-22T07:16:02.489Z,2.20
2018-01-22T07:17:02.475Z,2.90
2018-01-22T07:18:02.464Z,3.40
2018-01-22T07:19:02.453Z,4.10
2018-01-22T07:20:02.442Z,2.60
2018-01-22T07:21:02.428Z,3.60
2018-01-22T07:22:02.422Z,3.20
2018-01-22T07:23:02.410Z,4.40
2018-01-22T07:24:02.395Z,3.10
2018-01-22T07:25:02.385Z,3.00
2018-01-22T07:26:02.372Z,3.40
2018-01-22T07:27:02.359Z,4.00
2018-01-22T07:28:02.348Z,3.20
2018-01-22T07:29:02.334Z,3.40
2018-01-22T07:30:02.323Z,3.50
2018-01-22T07:31:02.312Z,3.10
2018-01-22T07:32:02.300Z,3.10
2018-01-22T07:33:02.287Z,3.90
2018-01-22T07:34:02.276Z,3.10
2018-01-22T07:35:02.265Z,3.50
2018-01-22T07:36:02.253Z,3.90
2018-01-22T07:37:02.242Z,3.20
2018-01-22T07:38:02.229Z,3.00
2018-01-22T07:39:02.219Z,2.70
2018-01-22T07:40:02.207Z,3.20
2018-01-22T07:41:02.195Z,3.50
2018-01-22T07:42:02.184Z,2.50
2018-01-22T07:43:02.173Z,3.20
2018-01-22T07:44:02.160Z,3.60
2018-01-22T07:45:02.154Z,3.20
2018-01-22T07:46:02.136Z,3.70
2018-01-22T07:47:02.126Z,3.80
2018-01-22T07:48:02.114Z,2.40
2018-01-22T07:49:02.102Z,3.00
2018-01-22T07:50:02.091Z,3.80
2018-01-22T07:51:02.079Z,3.80
2018-01-22T07:52:02.068Z,3.80
2018-01-22T07:53:02.060Z,3.60
2018-01-22T07:54:02.047Z,4.00
2018-01-22T07:55:02.033Z,4.50
2018-01-22T07:56:02.022Z,4.20
2018-01-22T07:57:02.009Z,3.70
2018-01-22T07:58:01.998Z,3.60
2018-01-22T07:59:01.986Z,4.50
2018-01-22T08:00:01.975Z,3.60
2018-01-22T08:01:01.963Z,3.50
2018-01-22T08:02:01.951Z,3.40
2018-01-22T08:03:01.939Z,5.40
2018-01-22T08:04:01.929Z,4.10
2018-01-22T08:05:01.916Z,4.00
2018-01-22T08:06:01.905Z,3.80
2018-01-22T08:07:01.898Z,4.50
2018-01-22T08:08:01.885Z,4.30
2018-01-22T08:09:01.871Z,3.50
2018-01-22T08:10:01.858Z,4.10
2018-01-22T08:11:01.846Z,3.00
2018-01-22T08:12:01.836Z,4.00
2018-01-22T08:13:01.824Z,3.90
2018-01-22T08:14:01.812Z,3.80
2018-01-22T08:15:01.801Z,2.60
2018-01-22T08:16:01.790Z,2.90
2018-01-22T08:17:01.778Z,3.90
2018-01-22T08:18:01.765Z,3.40
2018-01-22T08:19:01.754Z,3.30
2018-01-22T08:20:01.742Z,3.10
2018-01-22T08:21:01.730Z,3.50
2018-01-22T08:22:01.722Z,3.50
2018-01-22T08:23:01.707Z,3.70
2018-01-22T08:24:01.696Z,3.30
2018-01-22T08:25:01.684Z,4.30
2018-01-22T08:26:01.673Z,3.00
2018-01-22T08:27:01.661Z,4.00
2018-01-22T08:28:01.650Z,3.50
2018-01-22T08:29:01.637Z,3.50
2018-01-22T08:30:01.626Z,3.10
2018-01-22T08:31:01.616Z,3.50
2018-01-22T08:32:01.605Z,3.10
2018-01-22T08:33:01.592Z,4.40
2018-01-22T08:34:01.580Z,4.00
2018-01-22T08:35:01.589Z,3.30
2018-01-22T08:36:01.559Z,3.70
2018-01-22T08:37:01.549Z,4.40
2018-01-22T08:38:01.535Z,3.10
2018-01-22T08:39:01.524Z,3.80
2018-01-22T08:40:01.514Z,3.40
2018-01-22T08:41:01.502Z,2.70
2018-01-22T08:42:01.518Z,3.20
2018-01-22T08:43:01.479Z,3.40
2018-01-22T08:44:01.468Z,3.40
2018-01-22T08:45:01.455Z,4.00
2018-01-22T08:46:01.445Z,2.90
2018-01-22T08:47:01.435Z,3.30
2018-01-22T08:48:01.424Z,3.70
2018-01-22T08:49:01.413Z,2.60
2018-01-22T08:50:01.401Z,3.30
2018-01-22T08:51:01.448Z,3.00
2018-01-22T08:52:01.380Z,3.60
2018-01-22T08:53:01.368Z,3.40
2018-01-22T08:54:01.357Z,3.60
2018-01-22T08:55:01.347Z,3.50
2018-01-22T08:56:01.336Z,3.20
2018-01-22T08:57:01.325Z,3.40
2018-01-22T08:58:01.313Z,3.00
2018-01-22T08:59:01.302Z,3.40
2018-01-22T09:00:01.292Z,3.60
2018-01-22T09:01:01.280Z,3.30
2018-01-22T09:02:01.269Z,2.40
2018-01-22T09:03:01.273Z,3.70
2018-01-22T09:04:01.249Z,3.30
2018-01-22T09:05:01.237Z,3.00
2018-01-22T09:06:01.231Z,3.90
2018-01-22T09:07:01.215Z,2.70
2018-01-22T09:08:01.205Z,4.40
2018-01-22T09:09:01.192Z,3.30
2018-01-22T09:10:01.182Z,3.00
2018-01-22T09:11:01.172Z,3.20
2018-01-22T09:12:01.161Z,3.60
2018-01-22T09:13:01.150Z,2.30
2018-01-22T09:14:01.178Z,2.80
2018-01-22T09:15:01.128Z,3.00
2018-01-22T09:16:01.119Z,3.60
2018-01-22T09:17:01.106Z,2.60
2018-01-22T09:18:01.096Z,3.90
2018-01-22T09:19:01.088Z,3.20
2018-01-22T09:20:01.083Z,3.50
2018-01-22T09:21:01.063Z,3.30
2018-01-22T09:22:01.107Z,3.60
2018-01-22T09:23:01.042Z,3.30
2018-01-22T09:24:01.031Z,2.50
2018-01-22T09:25:01.019Z,3.30
2018-01-22T09:26:01.009Z,3.20
2018-01-22T09:27:00.998Z,2.80
2018-01-22T09:28:00.989Z,3.40
2018-01-22T09:29:00.978Z,2.80
2018-01-22T09:30:01.021Z,3.10
2018-01-22T09:31:00.955Z,2.30
2018-01-22T09:32:00.943Z,3.20
2018-01-22T09:33:00.933Z,3.40
2018-01-22T09:34:00.930Z,3.10
2018-01-22T09:35:00.912Z,3.50
2018-01-22T09:36:00.901Z,3.30
2018-01-22T09:37:00.891Z,3.00
2018-01-22T09:38:00.878Z,3.00
2018-01-22T09:39:00.867Z,3.80
2018-01-22T09:40:00.857Z,3.10
2018-01-22T09:41:00.853Z,4.00
2018-01-22T09:42:00.835Z,2.80
2018-01-22T09:43:00.826Z,3.00
2018-01-22T09:44:00.814Z,3.00
2018-01-22T09:45:00.804Z,3.10
2018-01-22T09:46:00.792Z,3.10
2018-01-22T09:47:00.782Z,3.50
2018-01-22T09:48:00.772Z,2.40
2018-01-22T09:49:00.803Z,3.20
2018-01-22T09:50:00.752Z,2.10
2018-01-22T09:51:00.740Z,3.00
2018-01-22T09:52:00.731Z,3.60
2018-01-22T09:53:00.720Z,2.50
2018-01-22T09:54:00.710Z,2.60
2018-01-22T09:55:00.699Z,2.50
2018-01-22T09:56:00.689Z,3.30
2018-01-22T09:57:00.677Z,2.50
2018-01-22T09:58:00.668Z,2.80
2018-01-22T09:59:00.665Z,3.20
2018-01-22T10:00:00.647Z,3.30
2018-01-22T10:01:00.636Z,2.30
2018-01-22T10:02:00.626Z,2.90
2018-01-22T10:03:00.615Z,3.40
2018-01-22T10:04:00.605Z,2.20
2018-01-22T10:05:00.593Z,3.40
2018-01-22T10:06:00.583Z,3.30
2018-01-22T10:07:00.573Z,3.00
2018-01-22T10:08:00.562Z,3.20
2018-01-22T10:09:00.586Z,2.40
2018-01-22T10:10:00.540Z,3.40
2018-01-22T10:11:00.530Z,3.10
2018-01-22T10:12:00.521Z,2.20
2018-01-22T10:13:00.508Z,2.60
2018-01-22T10:14:00.517Z,2.60
2018-01-22T10:15:00.510Z,3.90
2018-01-22T10:16:00.479Z,3.10
2018-01-22T10:17:00.466Z,3.70
2018-01-22T10:18:00.456Z,2.60
2018-01-22T10:19:00.445Z,3.50
2018-01-22T10:20:00.436Z,3.40
2018-01-22T10:21:00.426Z,2.80
2018-01-22T10:22:00.414Z,3.30
2018-01-22T10:23:00.404Z,2.60
2018-01-22T10:24:00.419Z,2.50
2018-01-22T10:25:00.383Z,3.00
2018-01-22T10:26:00.374Z,2.60
2018-01-22T10:27:00.363Z,2.50
2018-01-22T10:28:00.353Z,2.40
2018-01-22T10:29:00.344Z,2.20
2018-01-22T10:30:00.332Z,2.70
2018-01-22T10:31:00.321Z,2.90
2018-01-22T10:32:00.312Z,2.50
2018-01-22T10:33:00.300Z,3.00
2018-01-22T10:34:00.290Z,3.20
2018-01-22T10:35:00.280Z,2.60
2018-01-22T10:36:00.270Z,2.70
2018-01-22T10:37:00.259Z,2.80
2018-01-22T10:38:00.248Z,3.20
2018-01-22T10:39:00.239Z,2.50
2018-01-22T10:40:00.229Z,2.20
2018-01-22T10:41:00.217Z,3.00
2018-01-22T10:42:00.208Z,2.80
2018-01-22T10:43:00.198Z,2.50
2018-01-22T10:44:00.188Z,2.10
2018-01-22T10:45:00.176Z,2.40
2018-01-22T10:46:00.167Z,2.50
2018-01-22T10:47:00.157Z,3.00
2018-01-22T10:48:00.146Z,2.80
2018-01-22T10:49:00.135Z,2.50
2018-01-22T10:50:00.134Z,2.30
2018-01-22T10:51:00.116Z,3.20
2018-01-22T10:52:00.107Z,2.40
2018-01-22T10:53:00.095Z,1.90
2018-01-22T10:54:00.085Z,2.60
2018-01-22T10:55:00.076Z,2.20
2018-01-22T10:56:00.066Z,1.80
2018-01-22T10:57:00.055Z,2.30
2018-01-22T10:58:00.046Z,2.40
2018-01-22T10:59:00.037Z,2.20
2018-01-22T11:00:00.064Z,2.00
2018-01-22T11:01:00.031Z,2.80
2018-01-22T11:02:00.010Z,2.70
2018-01-22T11:02:59.996Z,2.10
2018-01-22T11:03:59.987Z,1.60
2018-01-22T11:04:59.976Z,2.50
2018-01-22T11:05:59.966Z,2.50
2018-01-22T11:06:59.957Z,2.00
2018-01-22T11:07:59.947Z,1.80
2018-01-22T11:08:59.937Z,2.90
2018-01-22T11:09:59.928Z,1.70
2018-01-22T11:10:59.918Z,2.80
2018-01-22T11:11:59.908Z,2.10
2018-01-22T11:12:59.898Z,2.60
2018-01-22T11:13:59.889Z,2.20
2018-01-22T11:14:59.879Z,2.70
2018-01-22T11:15:59.870Z,2.80
2018-01-22T11:16:59.860Z,2.50
2018-01-22T11:17:59.850Z,1.90
2018-01-22T11:18:59.848Z,2.30
2018-01-22T11:19:59.831Z,1.60
2018-01-22T11:20:59.820Z,1.70
2018-01-22T11:21:59.811Z,1.60
2018-01-22T11:22:59.803Z,2.00
2018-01-22T11:23:59.792Z,1.80
2018-01-22T11:24:59.783Z,1.70
2018-01-22T11:25:59.772Z,2.00
2018-01-22T11:26:59.764Z,2.10
2018-01-22T11:27:59.754Z,2.20
2018-01-22T11:28:59.746Z,2.20
2018-01-22T11:29:59.735Z,1.80
2018-01-22T11:30:59.725Z,2.20
2018-01-22T11:31:59.715Z,1.80
2018-01-22T11:32:59.705Z,1.90
2018-01-22T11:33:59.695Z,2.60
2018-01-22T11:34:59.685Z,2.10
2018-01-22T11:35:59.677Z,1.60
2018-01-22T11:36:59.665Z,1.80
2018-01-22T11:37:59.657Z,1.70
2018-01-22T11:38:59.646Z,1.60
2018-01-22T11:39:59.637Z,1.90
2018-01-22T11:40:59.626Z,1.30
2018-01-22T11:41:59.618Z,2.10
2018-01-22T11:42:59.607Z,1.80
2018-01-22T11:43:59.598Z,1.00
2018-01-22T11:44:59.587Z,2.20
2018-01-22T11:45:59.577Z,1.50
2018-01-22T11:46:59.567Z,1.40
2018-01-22T11:47:59.559Z,1.40
2018-01-22T11:48:59.547Z,1.90
2018-01-22T11:49:59.544Z,1.80
2018-01-22T11:50:59.527Z,1.70
2018-01-22T11:51:59.523Z,1.30
2018-01-22T11:52:59.506Z,1.20
2018-01-22T11:53:59.496Z,2.00
2018-01-22T11:54:59.486Z,1.30
2018-01-22T11:55:59.526Z,2.00
2018-01-22T11:56:59.468Z,1.60
2018-01-22T11:57:59.455Z,2.00
2018-01-22T11:58:59.444Z,1.60
2018-01-22T11:59:59.435Z,1.70
2018-01-22T12:00:59.423Z,1.30
2018-01-22T12:01:59.415Z,1.50
2018-01-22T12:02:59.404Z,2.60
2018-01-22T12:03:59.392Z,1.60
2018-01-22T12:04:59.383Z,2.20
2018-01-22T12:05:59.372Z,2.20
2018-01-22T12:06:59.362Z,2.40
2018-01-22T12:07:59.352Z,1.50
2018-01-22T12:08:59.352Z,1.40
2018-01-22T12:09:59.333Z,1.40
2018-01-22T12:10:59.322Z,1.90
2018-01-22T12:11:59.312Z,2.70
2018-01-22T12:12:59.301Z,1.70
2018-01-22T12:13:59.291Z,1.90
2018-01-22T12:14:59.281Z,2.20
2018-01-22T12:15:59.272Z,2.50
2018-01-22T12:16:59.261Z,2.70
2018-01-22T12:17:59.251Z,1.40
2018-01-22T12:18:59.241Z,1.30
2018-01-22T12:19:59.231Z,1.40
2018-01-22T12:20:59.219Z,1.20
2018-01-22T12:21:59.209Z,2.10
2018-01-22T12:22:59.199Z,2.00
2018-01-22T12:23:59.190Z,1.30
2018-01-22T12:24:59.187Z,2.70
2018-01-22T12:25:59.169Z,1.70
2018-01-22T12:26:59.159Z,1.40
2018-01-22T12:27:59.149Z,2.20
2018-01-22T12:28:59.137Z,1.90
2018-01-22T12:29:59.128Z,2.30
2018-01-22T12:30:59.118Z,1.40
2018-01-22T12:31:59.110Z,1.50
2018-01-22T12:32:59.097Z,2.00
2018-01-22T12:33:59.087Z,1.20
2018-01-22T12:34:59.078Z,2.10
2018-01-22T12:35:59.068Z,2.10
2018-01-22T12:36:59.057Z,1.40
2018-01-22T12:37:59.048Z,1.80
2018-01-22T12:38:59.038Z,0.90
2018-01-22T12:39:59.029Z,2.10
2018-01-22T12:40:59.017Z,1.40
2018-01-22T12:41:59.007Z,1.70
2018-01-22T12:42:58.998Z,1.50
2018-01-22T12:43:58.988Z,1.50
2018-01-22T12:44:58.977Z,2.30
2018-01-22T12:45:58.969Z,1.70
2018-01-22T12:46:58.958Z,1.40
2018-01-22T12:47:58.949Z,1.20
2018-01-22T12:48:58.937Z,1.70
2018-01-22T12:49:58.928Z,1.60
2018-01-22T12:50:58.920Z,1.90
2018-01-22T12:51:58.909Z,2.50
2018-01-22T12:52:58.898Z,1.20
2018-01-22T12:53:58.889Z,1.50
2018-01-22T12:54:58.881Z,1.90
2018-01-22T12:55:58.869Z,2.00
2018-01-22T12:56:58.867Z,2.10
2018-01-22T12:57:58.849Z,1.60
2018-01-22T12:58:58.840Z,1.70
2018-01-22T12:59:58.829Z,2.10
2018-01-22T13:00:58.820Z,1.70
2018-01-22T13:01:58.810Z,1.10
2018-01-22T13:02:58.801Z,1.50
2018-01-22T13:03:58.797Z,1.80
2018-01-22T13:04:58.779Z,1.90
2018-01-22T13:05:58.770Z,1.30
2018-01-22T13:06:58.761Z,1.30
2018-01-22T13:07:58.751Z,2.10
2018-01-22T13:08:58.742Z,1.40
2018-01-22T13:09:58.730Z,2.10
2018-01-22T13:10:58.719Z,1.80
2018-01-22T13:11:58.710Z,0.90
2018-01-22T13:12:58.699Z,1.00
2018-01-22T13:13:58.689Z,1.10
2018-01-22T13:14:58.678Z,1.10
2018-01-22T13:15:58.669Z,1.00
2018-01-22T13:16:58.658Z,1.20
2018-01-22T13:17:58.647Z,1.40
2018-01-22T13:18:58.637Z,1.90